sensor_id;sensor_type;location;lat;lon;timestamp;temperature;humidity
18229;DHT22;9239;50.932;3.142;2024-02-16T00:01:53;12.80;99.90
18229;DHT22;9239;50.932;3.142;2024-02-16T00:04:19;12.80;99.90
18229;DHT22;9239;50.932;3.142;2024-02-16T00:06:46;12.90;99.90
18229;DHT22;9239;50.932;3.142;2024-02-16T00:09:14;12.90;99.90
18229;DHT22;9239;50.932;3.142;2024-02-16T00:11:42;12.90;99.90
18229;DHT22;9239;50.932;3.142;2024-02-16T00:14:10;12.90;99.90
18229;DHT22;9239;50.932;3.142;2024-02-16T00:16:37;12.90;99.90
18229;DHT22;9239;50.932;3.142;2024-02-16T00:19:04;12.90;99.90
18229;DHT22;9239;50.932;3.142;2024-02-16T00:21:31;12.90;99.90
18229;DHT22;9239;50.932;3.142;2024-02-16T00:23:58;12.90;99.90
18229;DHT22;9239;50.932;3.142;2024-02-16T00:26:24;13.00;99.90
18229;DHT22;9239;50.932;3.142;2024-02-16T00:28:53;13.00;99.90
18229;DHT22;9239;50.932;3.142;2024-02-16T00:31:19;13.00;99.90
18229;DHT22;9239;50.932;3.142;2024-02-16T00:33:46;13.00;99.90
18229;DHT22;9239;50.932;3.142;2024-02-16T00:36:13;13.00;99.90
18229;DHT22;9239;50.932;3.142;2024-02-16T00:38:40;12.90;99.90
18229;DHT22;9239;50.932;3.142;2024-02-16T00:41:07;13.00;99.90
18229;DHT22;9239;50.932;3.142;2024-02-16T00:43:34;13.00;99.90
18229;DHT22;9239;50.932;3.142;2024-02-16T00:46:03;12.90;99.90
18229;DHT22;9239;50.932;3.142;2024-02-16T00:48:30;13.00;99.90
18229;DHT22;9239;50.932;3.142;2024-02-16T00:50:57;13.00;99.90
18229;DHT22;9239;50.932;3.142;2024-02-16T00:53:23;13.00;99.90
18229;DHT22;9239;50.932;3.142;2024-02-16T00:55:51;13.00;99.90
18229;DHT22;9239;50.932;3.142;2024-02-16T00:58:17;13.00;99.90
18229;DHT22;9239;50.932;3.142;2024-02-16T01:00:45;13.00;99.90
18229;DHT22;9239;50.932;3.142;2024-02-16T01:03:13;13.00;99.90
18229;DHT22;9239;50.932;3.142;2024-02-16T01:05:40;12.90;99.90
18229;DHT22;9239;50.932;3.142;2024-02-16T01:08:07;12.90;99.90
18229;DHT22;9239;50.932;3.142;2024-02-16T01:10:34;12.90;99.90
18229;DHT22;9239;50.932;3.142;2024-02-16T01:13:01;12.90;99.90
18229;DHT22;9239;50.932;3.142;2024-02-16T01:15:29;12.90;99.90
18229;DHT22;9239;50.932;3.142;2024-02-16T01:17:56;12.90;99.90
18229;DHT22;9239;50.932;3.142;2024-02-16T01:20:27;12.90;99.90
18229;DHT22;9239;50.932;3.142;2024-02-16T01:22:56;12.90;99.90
18229;DHT22;9239;50.932;3.142;2024-02-16T01:25:23;12.90;99.90
18229;DHT22;9239;50.932;3.142;2024-02-16T01:27:50;12.80;99.90
18229;DHT22;9239;50.932;3.142;2024-02-16T01:30:17;12.80;99.90
18229;DHT22;9239;50.932;3.142;2024-02-16T01:32:45;12.70;99.90
18229;DHT22;9239;50.932;3.142;2024-02-16T01:35:12;12.70;99.90
18229;DHT22;9239;50.932;3.142;2024-02-16T01:37:42;12.70;99.90
18229;DHT22;9239;50.932;3.142;2024-02-16T01:40:09;12.60;99.90
18229;DHT22;9239;50.932;3.142;2024-02-16T01:42:40;12.60;99.90
18229;DHT22;9239;50.932;3.142;2024-02-16T01:45:07;12.60;99.90
18229;DHT22;9239;50.932;3.142;2024-02-16T01:47:35;12.60;99.90
18229;DHT22;9239;50.932;3.142;2024-02-16T01:50:03;12.50;99.90
18229;DHT22;9239;50.932;3.142;2024-02-16T01:52:31;12.50;99.90
18229;DHT22;9239;50.932;3.142;2024-02-16T01:55:01;12.60;99.90
18229;DHT22;9239;50.932;3.142;2024-02-16T01:57:28;12.60;99.90
18229;DHT22;9239;50.932;3.142;2024-02-16T01:59:55;12.60;99.90
18229;DHT22;9239;50.932;3.142;2024-02-16T02:02:22;12.60;99.90
18229;DHT22;9239;50.932;3.142;2024-02-16T02:04:49;12.60;99.90
18229;DHT22;9239;50.932;3.142;2024-02-16T02:07:16;12.70;99.90
18229;DHT22;9239;50.932;3.142;2024-02-16T02:09:43;12.70;99.90
18229;DHT22;9239;50.932;3.142;2024-02-16T02:12:12;12.60;99.90
18229;DHT22;9239;50.932;3.142;2024-02-16T02:14:39;12.60;99.90
18229;DHT22;9239;50.932;3.142;2024-02-16T02:17:07;12.60;99.90
18229;DHT22;9239;50.932;3.142;2024-02-16T02:19:34;12.60;99.90
18229;DHT22;9239;50.932;3.142;2024-02-16T02:22:01;12.60;99.90
18229;DHT22;9239;50.932;3.142;2024-02-16T02:24:30;12.60;99.90
18229;DHT22;9239;50.932;3.142;2024-02-16T02:26:57;12.60;99.90
18229;DHT22;9239;50.932;3.142;2024-02-16T02:29:24;12.60;99.90
18229;DHT22;9239;50.932;3.142;2024-02-16T02:31:50;12.60;99.90
18229;DHT22;9239;50.932;3.142;2024-02-16T02:34:17;12.70;99.90
18229;DHT22;9239;50.932;3.142;2024-02-16T02:36:44;12.70;99.90
18229;DHT22;9239;50.932;3.142;2024-02-16T02:39:11;12.70;99.90
18229;DHT22;9239;50.932;3.142;2024-02-16T02:41:40;12.60;99.90
18229;DHT22;9239;50.932;3.142;2024-02-16T02:44:07;12.70;99.90
18229;DHT22;9239;50.932;3.142;2024-02-16T02:46:34;12.60;99.90
18229;DHT22;9239;50.932;3.142;2024-02-16T02:49:01;12.60;99.90
18229;DHT22;9239;50.932;3.142;2024-02-16T02:51:29;12.60;99.90
18229;DHT22;9239;50.932;3.142;2024-02-16T02:53:56;12.60;99.90
18229;DHT22;9239;50.932;3.142;2024-02-16T02:56:23;12.70;99.90
18229;DHT22;9239;50.932;3.142;2024-02-16T02:58:51;12.60;99.90
18229;DHT22;9239;50.932;3.142;2024-02-16T03:01:18;12.60;99.90
18229;DHT22;9239;50.932;3.142;2024-02-16T03:03:45;12.60;99.90
18229;DHT22;9239;50.932;3.142;2024-02-16T03:06:12;12.60;99.90
18229;DHT22;9239;50.932;3.142;2024-02-16T03:08:39;12.60;99.90
18229;DHT22;9239;50.932;3.142;2024-02-16T03:11:06;12.60;99.90
18229;DHT22;9239;50.932;3.142;2024-02-16T03:13:33;12.60;99.90
18229;DHT22;9239;50.932;3.142;2024-02-16T03:16:01;12.60;99.90
18229;DHT22;9239;50.932;3.142;2024-02-16T03:18:29;12.60;99.90
18229;DHT22;9239;50.932;3.142;2024-02-16T03:20:57;12.70;99.90
18229;DHT22;9239;50.932;3.142;2024-02-16T03:23:24;12.60;99.90
18229;DHT22;9239;50.932;3.142;2024-02-16T03:25:51;12.70;99.90
18229;DHT22;9239;50.932;3.142;2024-02-16T03:28:17;12.70;99.90
18229;DHT22;9239;50.932;3.142;2024-02-16T03:30:46;12.70;99.90
18229;DHT22;9239;50.932;3.142;2024-02-16T03:33:14;12.70;99.90
18229;DHT22;9239;50.932;3.142;2024-02-16T03:35:41;12.70;99.90
18229;DHT22;9239;50.932;3.142;2024-02-16T03:38:08;12.70;99.90
18229;DHT22;9239;50.932;3.142;2024-02-16T03:40:35;12.70;99.90
18229;DHT22;9239;50.932;3.142;2024-02-16T03:43:02;12.70;99.90
18229;DHT22;9239;50.932;3.142;2024-02-16T03:45:29;12.70;99.90
18229;DHT22;9239;50.932;3.142;2024-02-16T03:47:56;12.70;99.90
18229;DHT22;9239;50.932;3.142;2024-02-16T03:50:24;12.80;99.90
18229;DHT22;9239;50.932;3.142;2024-02-16T03:52:51;12.80;99.90
18229;DHT22;9239;50.932;3.142;2024-02-16T03:55:18;12.80;99.90
18229;DHT22;9239;50.932;3.142;2024-02-16T03:57:45;12.90;99.90
18229;DHT22;9239;50.932;3.142;2024-02-16T04:00:13;12.90;99.90
18229;DHT22;9239;50.932;3.142;2024-02-16T04:02:40;12.90;99.90
18229;DHT22;9239;50.932;3.142;2024-02-16T04:05:07;12.90;99.90
18229;DHT22;9239;50.932;3.142;2024-02-16T04:07:36;12.80;99.90
18229;DHT22;9239;50.932;3.142;2024-02-16T04:10:03;12.80;99.90
18229;DHT22;9239;50.932;3.142;2024-02-16T04:12:30;12.80;99.90
18229;DHT22;9239;50.932;3.142;2024-02-16T04:14:57;12.80;99.90
18229;DHT22;9239;50.932;3.142;2024-02-16T04:17:24;12.80;99.90
18229;DHT22;9239;50.932;3.142;2024-02-16T04:19:51;12.80;99.90
18229;DHT22;9239;50.932;3.142;2024-02-16T04:22:17;12.70;99.90
18229;DHT22;9239;50.932;3.142;2024-02-16T04:24:46;12.70;99.90
18229;DHT22;9239;50.932;3.142;2024-02-16T04:27:13;12.70;99.90
18229;DHT22;9239;50.932;3.142;2024-02-16T04:29:39;12.80;99.90
18229;DHT22;9239;50.932;3.142;2024-02-16T04:32:06;12.70;99.90
18229;DHT22;9239;50.932;3.142;2024-02-16T04:34:33;12.70;99.90
18229;DHT22;9239;50.932;3.142;2024-02-16T04:37:00;12.60;99.90
18229;DHT22;9239;50.932;3.142;2024-02-16T04:39:27;12.60;99.90
18229;DHT22;9239;50.932;3.142;2024-02-16T04:41:56;12.50;99.90
18229;DHT22;9239;50.932;3.142;2024-02-16T04:44:23;12.50;99.90
18229;DHT22;9239;50.932;3.142;2024-02-16T04:46:51;12.40;99.90
18229;DHT22;9239;50.932;3.142;2024-02-16T04:49:18;12.40;99.90
18229;DHT22;9239;50.932;3.142;2024-02-16T04:51:47;12.40;99.90
18229;DHT22;9239;50.932;3.142;2024-02-16T04:54:14;12.30;99.90
18229;DHT22;9239;50.932;3.142;2024-02-16T04:56:40;12.30;99.90
18229;DHT22;9239;50.932;3.142;2024-02-16T04:59:09;12.30;99.90
18229;DHT22;9239;50.932;3.142;2024-02-16T05:01:36;12.30;99.90
18229;DHT22;9239;50.932;3.142;2024-02-16T05:04:02;12.30;99.90
18229;DHT22;9239;50.932;3.142;2024-02-16T05:06:29;12.30;99.90
18229;DHT22;9239;50.932;3.142;2024-02-16T05:08:56;12.30;99.90
18229;DHT22;9239;50.932;3.142;2024-02-16T05:11:23;12.40;99.90
18229;DHT22;9239;50.932;3.142;2024-02-16T05:13:51;12.40;99.90
18229;DHT22;9239;50.932;3.142;2024-02-16T05:16:19;12.40;99.90
18229;DHT22;9239;50.932;3.142;2024-02-16T05:18:46;12.40;99.90
18229;DHT22;9239;50.932;3.142;2024-02-16T05:21:13;12.50;99.90
18229;DHT22;9239;50.932;3.142;2024-02-16T05:23:40;12.50;99.90
18229;DHT22;9239;50.932;3.142;2024-02-16T05:26:07;12.50;99.90
18229;DHT22;9239;50.932;3.142;2024-02-16T05:28:33;12.50;99.90
18229;DHT22;9239;50.932;3.142;2024-02-16T05:31:12;12.40;99.90
18229;DHT22;9239;50.932;3.142;2024-02-16T05:33:43;12.40;99.90
18229;DHT22;9239;50.932;3.142;2024-02-16T05:36:10;12.40;99.90
18229;DHT22;9239;50.932;3.142;2024-02-16T05:38:37;12.40;99.90
18229;DHT22;9239;50.932;3.142;2024-02-16T05:41:08;12.40;99.90
18229;DHT22;9239;50.932;3.142;2024-02-16T05:43:36;12.40;99.90
18229;DHT22;9239;50.932;3.142;2024-02-16T05:46:04;12.50;99.90
18229;DHT22;9239;50.932;3.142;2024-02-16T05:48:32;12.50;99.90
18229;DHT22;9239;50.932;3.142;2024-02-16T05:51:04;12.50;99.90
18229;DHT22;9239;50.932;3.142;2024-02-16T05:53:32;12.50;99.90
18229;DHT22;9239;50.932;3.142;2024-02-16T05:55:59;12.50;99.90
18229;DHT22;9239;50.932;3.142;2024-02-16T05:58:26;12.50;99.90
18229;DHT22;9239;50.932;3.142;2024-02-16T06:00:53;12.60;99.90
18229;DHT22;9239;50.932;3.142;2024-02-16T06:03:21;12.60;99.90
18229;DHT22;9239;50.932;3.142;2024-02-16T06:05:48;12.50;99.90
18229;DHT22;9239;50.932;3.142;2024-02-16T06:08:16;12.50;99.90
18229;DHT22;9239;50.932;3.142;2024-02-16T06:10:44;12.50;99.90
18229;DHT22;9239;50.932;3.142;2024-02-16T06:13:16;12.60;99.90
18229;DHT22;9239;50.932;3.142;2024-02-16T06:15:43;12.60;99.90
18229;DHT22;9239;50.932;3.142;2024-02-16T06:18:10;12.60;99.90
18229;DHT22;9239;50.932;3.142;2024-02-16T06:20:37;12.60;99.90
18229;DHT22;9239;50.932;3.142;2024-02-16T06:23:04;12.50;99.90
18229;DHT22;9239;50.932;3.142;2024-02-16T06:25:32;12.50;99.90
18229;DHT22;9239;50.932;3.142;2024-02-16T06:27:59;12.40;99.90
18229;DHT22;9239;50.932;3.142;2024-02-16T06:30:26;12.40;99.90
18229;DHT22;9239;50.932;3.142;2024-02-16T06:32:53;12.30;99.90
18229;DHT22;9239;50.932;3.142;2024-02-16T06:35:20;12.30;99.90
18229;DHT22;9239;50.932;3.142;2024-02-16T06:37:47;12.20;99.90
18229;DHT22;9239;50.932;3.142;2024-02-16T06:40:14;12.20;99.90
18229;DHT22;9239;50.932;3.142;2024-02-16T06:42:43;12.10;99.90
18229;DHT22;9239;50.932;3.142;2024-02-16T06:45:10;12.10;99.90
18229;DHT22;9239;50.932;3.142;2024-02-16T06:47:36;12.10;99.90
18229;DHT22;9239;50.932;3.142;2024-02-16T06:50:04;12.00;99.90
18229;DHT22;9239;50.932;3.142;2024-02-16T06:52:31;12.00;99.90
18229;DHT22;9239;50.932;3.142;2024-02-16T06:54:58;12.00;99.90
18229;DHT22;9239;50.932;3.142;2024-02-16T06:57:25;11.90;99.90
18229;DHT22;9239;50.932;3.142;2024-02-16T06:59:53;11.90;99.90
18229;DHT22;9239;50.932;3.142;2024-02-16T07:02:22;11.90;99.90
18229;DHT22;9239;50.932;3.142;2024-02-16T07:04:50;11.90;99.90
18229;DHT22;9239;50.932;3.142;2024-02-16T07:07:16;11.90;99.90
18229;DHT22;9239;50.932;3.142;2024-02-16T07:09:44;11.90;99.90
18229;DHT22;9239;50.932;3.142;2024-02-16T07:12:11;11.90;99.90
18229;DHT22;9239;50.932;3.142;2024-02-16T07:14:39;11.90;99.90
18229;DHT22;9239;50.932;3.142;2024-02-16T07:17:07;11.90;99.90
18229;DHT22;9239;50.932;3.142;2024-02-16T07:19:35;12.00;99.90
18229;DHT22;9239;50.932;3.142;2024-02-16T07:22:03;12.00;99.90
18229;DHT22;9239;50.932;3.142;2024-02-16T07:24:32;12.00;99.90
18229;DHT22;9239;50.932;3.142;2024-02-16T07:26:59;12.00;99.90
18229;DHT22;9239;50.932;3.142;2024-02-16T07:29:27;12.00;99.90
18229;DHT22;9239;50.932;3.142;2024-02-16T07:31:54;12.00;99.90
18229;DHT22;9239;50.932;3.142;2024-02-16T07:34:23;12.00;99.90
18229;DHT22;9239;50.932;3.142;2024-02-16T07:36:50;12.10;99.90
18229;DHT22;9239;50.932;3.142;2024-02-16T07:39:17;12.10;99.90
18229;DHT22;9239;50.932;3.142;2024-02-16T07:41:44;12.10;99.90
18229;DHT22;9239;50.932;3.142;2024-02-16T07:44:11;12.10;99.90
18229;DHT22;9239;50.932;3.142;2024-02-16T07:46:41;12.10;99.90
18229;DHT22;9239;50.932;3.142;2024-02-16T07:49:11;12.10;99.90
18229;DHT22;9239;50.932;3.142;2024-02-16T07:51:39;12.10;99.90
18229;DHT22;9239;50.932;3.142;2024-02-16T07:54:07;12.10;99.90
18229;DHT22;9239;50.932;3.142;2024-02-16T07:56:34;12.10;99.90
18229;DHT22;9239;50.932;3.142;2024-02-16T07:59:01;12.10;99.90
18229;DHT22;9239;50.932;3.142;2024-02-16T08:01:28;12.10;99.90
18229;DHT22;9239;50.932;3.142;2024-02-16T08:03:54;12.10;99.90
18229;DHT22;9239;50.932;3.142;2024-02-16T08:06:25;12.10;99.90
18229;DHT22;9239;50.932;3.142;2024-02-16T08:08:54;12.10;99.90
18229;DHT22;9239;50.932;3.142;2024-02-16T08:11:22;12.10;99.90
18229;DHT22;9239;50.932;3.142;2024-02-16T08:13:48;12.20;99.90
18229;DHT22;9239;50.932;3.142;2024-02-16T08:16:15;12.20;99.90
18229;DHT22;9239;50.932;3.142;2024-02-16T08:18:43;12.30;99.90
18229;DHT22;9239;50.932;3.142;2024-02-16T08:21:10;12.30;99.90
18229;DHT22;9239;50.932;3.142;2024-02-16T08:23:37;12.30;99.90
18229;DHT22;9239;50.932;3.142;2024-02-16T08:26:06;12.30;99.90
18229;DHT22;9239;50.932;3.142;2024-02-16T08:28:32;12.30;99.90
18229;DHT22;9239;50.932;3.142;2024-02-16T08:30:59;12.30;99.90
18229;DHT22;9239;50.932;3.142;2024-02-16T08:33:26;12.30;99.90
18229;DHT22;9239;50.932;3.142;2024-02-16T08:35:53;12.30;99.90
18229;DHT22;9239;50.932;3.142;2024-02-16T08:38:20;12.30;99.90
18229;DHT22;9239;50.932;3.142;2024-02-16T08:40:47;12.30;99.90
18229;DHT22;9239;50.932;3.142;2024-02-16T08:43:18;12.40;99.90
18229;DHT22;9239;50.932;3.142;2024-02-16T08:45:45;12.30;99.90
18229;DHT22;9239;50.932;3.142;2024-02-16T08:48:12;12.30;99.90
18229;DHT22;9239;50.932;3.142;2024-02-16T08:50:39;12.30;99.90
18229;DHT22;9239;50.932;3.142;2024-02-16T08:53:05;12.20;99.90
18229;DHT22;9239;50.932;3.142;2024-02-16T08:55:33;12.20;99.90
18229;DHT22;9239;50.932;3.142;2024-02-16T08:58:00;12.20;99.90
18229;DHT22;9239;50.932;3.142;2024-02-16T09:00:28;12.20;99.90
18229;DHT22;9239;50.932;3.142;2024-02-16T09:02:55;12.30;99.90
18229;DHT22;9239;50.932;3.142;2024-02-16T09:05:23;12.20;99.90
18229;DHT22;9239;50.932;3.142;2024-02-16T09:07:50;12.30;99.90
18229;DHT22;9239;50.932;3.142;2024-02-16T09:10:17;12.30;99.90
18229;DHT22;9239;50.932;3.142;2024-02-16T09:12:44;12.20;99.90
18229;DHT22;9239;50.932;3.142;2024-02-16T09:15:11;12.30;99.90
18229;DHT22;9239;50.932;3.142;2024-02-16T09:17:39;12.20;99.90
18229;DHT22;9239;50.932;3.142;2024-02-16T09:20:07;12.20;99.90
18229;DHT22;9239;50.932;3.142;2024-02-16T09:22:34;12.20;99.90
18229;DHT22;9239;50.932;3.142;2024-02-16T09:25:02;12.20;99.90
18229;DHT22;9239;50.932;3.142;2024-02-16T09:27:29;12.20;99.90
18229;DHT22;9239;50.932;3.142;2024-02-16T09:29:56;12.20;99.90
18229;DHT22;9239;50.932;3.142;2024-02-16T09:32:24;12.20;99.90
18229;DHT22;9239;50.932;3.142;2024-02-16T09:34:52;12.20;99.90
18229;DHT22;9239;50.932;3.142;2024-02-16T09:37:20;12.20;99.90
18229;DHT22;9239;50.932;3.142;2024-02-16T09:39:47;12.20;99.90
18229;DHT22;9239;50.932;3.142;2024-02-16T09:42:13;12.20;99.90
18229;DHT22;9239;50.932;3.142;2024-02-16T09:44:42;12.20;99.90
18229;DHT22;9239;50.932;3.142;2024-02-16T09:47:10;12.20;99.90
18229;DHT22;9239;50.932;3.142;2024-02-16T09:49:39;12.20;99.90
18229;DHT22;9239;50.932;3.142;2024-02-16T09:52:10;12.20;99.90
18229;DHT22;9239;50.932;3.142;2024-02-16T09:54:37;12.20;99.90
18229;DHT22;9239;50.932;3.142;2024-02-16T09:57:05;12.20;99.90
18229;DHT22;9239;50.932;3.142;2024-02-16T09:59:32;12.20;99.90
18229;DHT22;9239;50.932;3.142;2024-02-16T10:01:59;12.20;99.90
18229;DHT22;9239;50.932;3.142;2024-02-16T10:04:27;12.20;99.90
18229;DHT22;9239;50.932;3.142;2024-02-16T10:06:54;12.20;99.90
18229;DHT22;9239;50.932;3.142;2024-02-16T10:09:26;12.20;99.90
18229;DHT22;9239;50.932;3.142;2024-02-16T10:11:54;12.20;99.90
18229;DHT22;9239;50.932;3.142;2024-02-16T10:14:22;12.20;99.90
18229;DHT22;9239;50.932;3.142;2024-02-16T10:16:59;12.10;99.90
18229;DHT22;9239;50.932;3.142;2024-02-16T10:19:29;12.10;99.90
18229;DHT22;9239;50.932;3.142;2024-02-16T10:22:06;12.00;99.90
18229;DHT22;9239;50.932;3.142;2024-02-16T10:24:35;12.00;99.90
18229;DHT22;9239;50.932;3.142;2024-02-16T10:27:04;12.10;99.90
18229;DHT22;9239;50.932;3.142;2024-02-16T10:29:32;12.00;99.90
18229;DHT22;9239;50.932;3.142;2024-02-16T10:32:00;12.00;99.90
18229;DHT22;9239;50.932;3.142;2024-02-16T10:34:28;12.00;99.90
18229;DHT22;9239;50.932;3.142;2024-02-16T10:36:57;12.00;99.90
18229;DHT22;9239;50.932;3.142;2024-02-16T10:39:25;12.00;99.90
18229;DHT22;9239;50.932;3.142;2024-02-16T10:41:55;12.00;99.90
18229;DHT22;9239;50.932;3.142;2024-02-16T10:44:24;12.00;99.90
18229;DHT22;9239;50.932;3.142;2024-02-16T10:46:51;11.90;99.90
18229;DHT22;9239;50.932;3.142;2024-02-16T10:49:18;11.90;99.90
18229;DHT22;9239;50.932;3.142;2024-02-16T10:51:47;11.90;99.90
18229;DHT22;9239;50.932;3.142;2024-02-16T10:54:17;12.00;99.90
18229;DHT22;9239;50.932;3.142;2024-02-16T10:56:45;12.00;99.90
18229;DHT22;9239;50.932;3.142;2024-02-16T10:59:15;12.00;99.90
18229;DHT22;9239;50.932;3.142;2024-02-16T11:01:44;12.10;99.90
18229;DHT22;9239;50.932;3.142;2024-02-16T11:04:14;12.10;99.90
18229;DHT22;9239;50.932;3.142;2024-02-16T11:06:45;12.10;99.90
18229;DHT22;9239;50.932;3.142;2024-02-16T11:09:25;12.10;99.90
18229;DHT22;9239;50.932;3.142;2024-02-16T11:11:53;12.20;99.90
18229;DHT22;9239;50.932;3.142;2024-02-16T11:14:22;12.20;99.90
18229;DHT22;9239;50.932;3.142;2024-02-16T11:16:53;12.30;99.90
18229;DHT22;9239;50.932;3.142;2024-02-16T11:19:22;12.20;99.90
18229;DHT22;9239;50.932;3.142;2024-02-16T11:21:56;12.20;99.90
18229;DHT22;9239;50.932;3.142;2024-02-16T11:24:31;12.20;99.90
18229;DHT22;9239;50.932;3.142;2024-02-16T11:27:00;12.20;99.90
18229;DHT22;9239;50.932;3.142;2024-02-16T11:29:31;12.20;99.90
18229;DHT22;9239;50.932;3.142;2024-02-16T11:32:00;12.20;99.90
18229;DHT22;9239;50.932;3.142;2024-02-16T11:34:28;12.30;99.90
18229;DHT22;9239;50.932;3.142;2024-02-16T11:36:55;12.40;99.90
18229;DHT22;9239;50.932;3.142;2024-02-16T11:39:23;12.40;99.90
18229;DHT22;9239;50.932;3.142;2024-02-16T11:41:59;12.50;99.90
18229;DHT22;9239;50.932;3.142;2024-02-16T11:44:27;12.50;99.90
18229;DHT22;9239;50.932;3.142;2024-02-16T11:46:55;12.60;99.90
18229;DHT22;9239;50.932;3.142;2024-02-16T11:49:22;12.60;99.90
18229;DHT22;9239;50.932;3.142;2024-02-16T11:51:50;12.60;99.90
18229;DHT22;9239;50.932;3.142;2024-02-16T11:54:17;12.70;99.90
18229;DHT22;9239;50.932;3.142;2024-02-16T11:56:44;12.70;99.90
18229;DHT22;9239;50.932;3.142;2024-02-16T11:59:13;12.70;99.90
18229;DHT22;9239;50.932;3.142;2024-02-16T12:01:49;12.80;99.90
18229;DHT22;9239;50.932;3.142;2024-02-16T12:04:22;12.90;99.90
18229;DHT22;9239;50.932;3.142;2024-02-16T12:06:51;13.00;99.90
18229;DHT22;9239;50.932;3.142;2024-02-16T12:09:19;13.10;99.90
18229;DHT22;9239;50.932;3.142;2024-02-16T12:11:47;13.10;99.90
18229;DHT22;9239;50.932;3.142;2024-02-16T12:14:15;13.20;99.90
18229;DHT22;9239;50.932;3.142;2024-02-16T12:16:42;13.40;99.90
18229;DHT22;9239;50.932;3.142;2024-02-16T12:19:09;13.40;99.90
18229;DHT22;9239;50.932;3.142;2024-02-16T12:21:39;13.40;99.90
18229;DHT22;9239;50.932;3.142;2024-02-16T12:24:07;13.40;99.90
18229;DHT22;9239;50.932;3.142;2024-02-16T12:26:34;13.60;99.90
18229;DHT22;9239;50.932;3.142;2024-02-16T12:29:01;13.70;99.90
18229;DHT22;9239;50.932;3.142;2024-02-16T12:31:30;13.70;99.90
18229;DHT22;9239;50.932;3.142;2024-02-16T12:33:57;13.70;99.90
18229;DHT22;9239;50.932;3.142;2024-02-16T12:36:24;13.60;99.90
18229;DHT22;9239;50.932;3.142;2024-02-16T12:38:53;13.70;99.90
18229;DHT22;9239;50.932;3.142;2024-02-16T12:41:20;13.60;99.90
18229;DHT22;9239;50.932;3.142;2024-02-16T12:43:48;13.60;99.90
18229;DHT22;9239;50.932;3.142;2024-02-16T12:46:15;13.70;99.90
18229;DHT22;9239;50.932;3.142;2024-02-16T12:48:42;13.60;99.90
18229;DHT22;9239;50.932;3.142;2024-02-16T12:51:09;13.50;99.90
18229;DHT22;9239;50.932;3.142;2024-02-16T12:53:36;13.60;99.90
18229;DHT22;9239;50.932;3.142;2024-02-16T12:56:07;13.50;99.90
18229;DHT22;9239;50.932;3.142;2024-02-16T12:58:35;13.50;99.90
18229;DHT22;9239;50.932;3.142;2024-02-16T13:01:02;13.50;99.90
18229;DHT22;9239;50.932;3.142;2024-02-16T13:03:31;13.50;99.90
18229;DHT22;9239;50.932;3.142;2024-02-16T13:05:58;13.50;99.90
18229;DHT22;9239;50.932;3.142;2024-02-16T13:08:25;13.50;99.90
18229;DHT22;9239;50.932;3.142;2024-02-16T13:10:52;13.50;99.90
18229;DHT22;9239;50.932;3.142;2024-02-16T13:13:20;13.60;99.90
18229;DHT22;9239;50.932;3.142;2024-02-16T13:15:47;13.60;99.90
18229;DHT22;9239;50.932;3.142;2024-02-16T13:18:14;13.80;99.90
18229;DHT22;9239;50.932;3.142;2024-02-16T13:20:42;13.90;99.90
18229;DHT22;9239;50.932;3.142;2024-02-16T13:23:09;13.90;99.90
18229;DHT22;9239;50.932;3.142;2024-02-16T13:25:36;14.00;99.90
18229;DHT22;9239;50.932;3.142;2024-02-16T13:28:03;14.00;99.90
18229;DHT22;9239;50.932;3.142;2024-02-16T13:30:32;13.90;99.90
18229;DHT22;9239;50.932;3.142;2024-02-16T13:32:59;14.00;99.90
18229;DHT22;9239;50.932;3.142;2024-02-16T13:35:26;13.90;99.90
18229;DHT22;9239;50.932;3.142;2024-02-16T13:37:54;13.90;99.90
18229;DHT22;9239;50.932;3.142;2024-02-16T13:40:21;13.90;99.90
18229;DHT22;9239;50.932;3.142;2024-02-16T13:42:48;13.90;99.90
18229;DHT22;9239;50.932;3.142;2024-02-16T13:45:15;13.90;99.90
18229;DHT22;9239;50.932;3.142;2024-02-16T13:47:44;14.00;99.90
18229;DHT22;9239;50.932;3.142;2024-02-16T13:50:11;14.10;99.90
18229;DHT22;9239;50.932;3.142;2024-02-16T13:52:38;14.20;99.90
18229;DHT22;9239;50.932;3.142;2024-02-16T13:55:05;14.30;99.90
18229;DHT22;9239;50.932;3.142;2024-02-16T13:57:32;14.30;99.90
18229;DHT22;9239;50.932;3.142;2024-02-16T13:59:59;14.30;99.90
18229;DHT22;9239;50.932;3.142;2024-02-16T14:02:26;14.30;99.90
18229;DHT22;9239;50.932;3.142;2024-02-16T14:04:54;14.40;99.90
18229;DHT22;9239;50.932;3.142;2024-02-16T14:07:22;14.40;99.90
18229;DHT22;9239;50.932;3.142;2024-02-16T14:09:49;14.40;99.90
18229;DHT22;9239;50.932;3.142;2024-02-16T14:12:16;14.30;99.90
18229;DHT22;9239;50.932;3.142;2024-02-16T14:14:43;14.30;99.90
18229;DHT22;9239;50.932;3.142;2024-02-16T14:17:09;14.20;99.90
18229;DHT22;9239;50.932;3.142;2024-02-16T14:19:36;14.10;99.90
18229;DHT22;9239;50.932;3.142;2024-02-16T14:22:05;14.10;99.90
18229;DHT22;9239;50.932;3.142;2024-02-16T14:24:32;14.10;99.90
18229;DHT22;9239;50.932;3.142;2024-02-16T14:26:59;14.10;99.90
18229;DHT22;9239;50.932;3.142;2024-02-16T14:29:26;14.10;99.90
18229;DHT22;9239;50.932;3.142;2024-02-16T14:31:54;14.20;99.90
18229;DHT22;9239;50.932;3.142;2024-02-16T14:34:21;14.30;99.90
18229;DHT22;9239;50.932;3.142;2024-02-16T14:36:48;14.40;99.90
18229;DHT22;9239;50.932;3.142;2024-02-16T14:39:16;14.40;99.90
18229;DHT22;9239;50.932;3.142;2024-02-16T14:41:43;14.60;99.90
18229;DHT22;9239;50.932;3.142;2024-02-16T14:44:10;14.60;99.90
18229;DHT22;9239;50.932;3.142;2024-02-16T14:46:37;14.50;99.90
18229;DHT22;9239;50.932;3.142;2024-02-16T14:49:04;14.40;99.90
18229;DHT22;9239;50.932;3.142;2024-02-16T14:51:34;14.30;99.90
18229;DHT22;9239;50.932;3.142;2024-02-16T14:54:01;14.30;99.90
18229;DHT22;9239;50.932;3.142;2024-02-16T14:56:30;14.30;99.90
18229;DHT22;9239;50.932;3.142;2024-02-16T14:58:57;14.20;99.90
18229;DHT22;9239;50.932;3.142;2024-02-16T15:01:24;14.10;99.90
18229;DHT22;9239;50.932;3.142;2024-02-16T15:03:52;14.00;99.90
18229;DHT22;9239;50.932;3.142;2024-02-16T15:06:19;13.90;99.90
18229;DHT22;9239;50.932;3.142;2024-02-16T15:08:46;13.80;99.90
18229;DHT22;9239;50.932;3.142;2024-02-16T15:11:12;13.70;99.90
18229;DHT22;9239;50.932;3.142;2024-02-16T15:13:42;13.70;99.90
18229;DHT22;9239;50.932;3.142;2024-02-16T15:16:09;13.50;99.90
18229;DHT22;9239;50.932;3.142;2024-02-16T15:18:35;13.40;99.90
18229;DHT22;9239;50.932;3.142;2024-02-16T15:21:02;13.30;99.90
18229;DHT22;9239;50.932;3.142;2024-02-16T15:23:29;13.30;99.90
18229;DHT22;9239;50.932;3.142;2024-02-16T15:25:56;13.30;99.90
18229;DHT22;9239;50.932;3.142;2024-02-16T15:28:24;13.30;99.90
18229;DHT22;9239;50.932;3.142;2024-02-16T15:30:53;13.30;99.90
18229;DHT22;9239;50.932;3.142;2024-02-16T15:33:19;13.30;99.90
18229;DHT22;9239;50.932;3.142;2024-02-16T15:35:46;13.20;99.90
18229;DHT22;9239;50.932;3.142;2024-02-16T15:38:13;13.10;99.90
18229;DHT22;9239;50.932;3.142;2024-02-16T15:40:41;13.20;99.90
18229;DHT22;9239;50.932;3.142;2024-02-16T15:43:08;13.10;99.90
18229;DHT22;9239;50.932;3.142;2024-02-16T15:45:37;13.10;99.90
18229;DHT22;9239;50.932;3.142;2024-02-16T15:48:08;13.10;99.90